createdAt,value
2017-11-15T00:00:22.450Z,91.30
2017-11-15T00:02:49.999Z,91.30
2017-11-15T00:05:17.559Z,91.20
2017-11-15T00:07:45.125Z,91.10
2017-11-15T00:10:12.686Z,91.00
2017-11-15T00:12:40.258Z,91.10
2017-11-15T00:15:07.828Z,91.20
2017-11-15T00:17:36.144Z,91.30
2017-11-15T00:20:03.698Z,91.30
2017-11-15T00:22:37.265Z,91.20
2017-11-15T00:25:05.599Z,91.00
2017-11-15T00:27:33.158Z,91.00
2017-11-15T00:30:00.712Z,90.70
2017-11-15T00:32:28.274Z,90.90
2017-11-15T00:34:55.833Z,90.80
2017-11-15T00:37:23.389Z,90.80
2017-11-15T00:39:50.966Z,90.70
2017-11-15T00:42:18.533Z,90.60
2017-11-15T00:44:46.090Z,90.60
2017-11-15T00:47:13.638Z,90.70
2017-11-15T00:49:41.187Z,90.80
2017-11-15T00:52:08.750Z,90.80
2017-11-15T00:54:36.403Z,90.80
2017-11-15T00:57:03.960Z,90.70
2017-11-15T00:59:31.518Z,90.70
2017-11-15T01:01:59.063Z,90.50
2017-11-15T01:04:27.395Z,90.40
2017-11-15T01:06:54.955Z,90.40
2017-11-15T01:09:22.525Z,90.20
2017-11-15T01:11:50.081Z,90.20
2017-11-15T01:14:18.408Z,90.50
2017-11-15T01:16:45.955Z,90.50
2017-11-15T01:19:14.370Z,90.50
2017-11-15T01:21:41.923Z,90.50
2017-11-15T01:24:09.470Z,90.50
2017-11-15T01:26:37.792Z,90.30
2017-11-15T01:29:05.353Z,90.40
2017-11-15T01:31:33.000Z,90.20
2017-11-15T01:34:00.562Z,90.20
2017-11-15T01:36:28.126Z,90.20
2017-11-15T01:38:55.691Z,90.10
2017-11-15T01:41:23.246Z,89.70
2017-11-15T01:43:50.825Z,90.00
2017-11-15T01:46:18.379Z,90.20
2017-11-15T01:48:45.941Z,90.10
2017-11-15T01:51:13.487Z,90.00
2017-11-15T01:53:41.041Z,90.30
2017-11-15T01:56:08.598Z,90.20
2017-11-15T01:58:36.135Z,90.20
2017-11-15T02:01:14.504Z,90.10
2017-11-15T02:03:42.059Z,90.00
2017-11-15T02:06:09.614Z,89.70
2017-11-15T02:08:37.155Z,90.00
2017-11-15T02:11:04.709Z,89.90
2017-11-15T02:13:32.273Z,89.70
2017-11-15T02:15:59.813Z,89.20
2017-11-15T02:18:27.370Z,90.00
2017-11-15T02:20:54.957Z,90.00
2017-11-15T02:23:22.532Z,89.80
2017-11-15T02:25:50.110Z,89.50
2017-11-15T02:28:17.669Z,89.70
2017-11-15T02:30:45.229Z,89.70
2017-11-15T02:33:12.821Z,89.80
2017-11-15T02:35:41.165Z,90.40
2017-11-15T02:38:08.718Z,90.30
2017-11-15T02:40:37.044Z,90.30
2017-11-15T02:43:05.358Z,90.30
2017-11-15T02:45:32.907Z,90.30
2017-11-15T02:48:00.494Z,90.40
2017-11-15T02:50:28.051Z,90.60
2017-11-15T02:52:55.614Z,90.60
2017-11-15T02:55:23.209Z,90.60
2017-11-15T02:57:51.635Z,90.90
2017-11-15T03:00:19.181Z,90.90
2017-11-15T03:02:46.734Z,90.80
2017-11-15T03:05:14.293Z,90.70
2017-11-15T03:07:41.870Z,90.80
2017-11-15T03:10:09.459Z,90.70
2017-11-15T03:12:37.031Z,90.70
2017-11-15T03:15:04.565Z,90.70
2017-11-15T03:17:32.118Z,90.60
2017-11-15T03:19:59.666Z,90.50
2017-11-15T03:22:27.204Z,90.40
2017-11-15T03:24:54.777Z,90.40
2017-11-15T03:27:22.333Z,90.60
2017-11-15T03:29:49.875Z,90.60
2017-11-15T03:32:18.168Z,90.30
2017-11-15T03:34:45.728Z,90.30
2017-11-15T03:37:13.294Z,90.50
2017-11-15T03:39:40.842Z,90.60
2017-11-15T03:42:08.418Z,90.60
2017-11-15T03:44:35.968Z,90.60
2017-11-15T03:47:03.524Z,90.60
2017-11-15T03:49:31.859Z,90.60
2017-11-15T03:51:59.417Z,90.50
2017-11-15T03:54:26.950Z,90.50
2017-11-15T03:56:54.531Z,90.40
2017-11-15T03:59:22.109Z,90.40
2017-11-15T04:01:49.659Z,90.20
2017-11-15T04:04:17.205Z,90.30
2017-11-15T04:06:44.766Z,90.40
2017-11-15T04:09:12.307Z,90.60
2017-11-15T04:11:39.865Z,90.50
2017-11-15T04:14:07.434Z,90.50
2017-11-15T04:16:34.986Z,90.50
2017-11-15T04:19:02.557Z,90.50
2017-11-15T04:21:30.089Z,90.40
2017-11-15T04:23:58.473Z,90.60
2017-11-15T04:26:26.804Z,90.60
2017-11-15T04:28:54.344Z,90.60
2017-11-15T04:31:21.892Z,90.60
2017-11-15T04:33:49.445Z,90.50
2017-11-15T04:36:16.997Z,90.40
2017-11-15T04:38:45.305Z,90.30
2017-11-15T04:41:12.879Z,90.30
2017-11-15T04:43:40.419Z,90.30
2017-11-15T04:46:07.977Z,90.30
2017-11-15T04:48:35.518Z,90.20
2017-11-15T04:51:03.082Z,90.10
2017-11-15T04:53:30.637Z,90.10
2017-11-15T04:55:58.198Z,90.20
2017-11-15T04:58:25.751Z,90.40
2017-11-15T05:00:54.048Z,90.30
2017-11-15T05:03:21.613Z,90.30
2017-11-15T05:05:49.150Z,90.20
2017-11-15T05:08:17.459Z,90.20
2017-11-15T05:10:45.049Z,90.20
2017-11-15T05:13:12.633Z,90.10
2017-11-15T05:15:40.954Z,90.00
2017-11-15T05:18:08.517Z,90.00
2017-11-15T05:20:36.063Z,90.20
2017-11-15T05:23:03.600Z,90.60
2017-11-15T05:25:31.934Z,90.80
2017-11-15T05:27:59.472Z,90.80
2017-11-15T05:30:27.035Z,90.70
2017-11-15T05:32:54.584Z,90.60
2017-11-15T05:35:22.172Z,90.50
2017-11-15T05:37:49.734Z,90.60
2017-11-15T05:40:17.283Z,90.50
2017-11-15T05:42:44.876Z,90.40
2017-11-15T05:45:12.428Z,90.30
2017-11-15T05:47:39.991Z,90.20
2017-11-15T05:50:07.553Z,90.00
2017-11-15T05:52:35.134Z,90.10
2017-11-15T05:55:03.457Z,89.80
2017-11-15T05:57:31.015Z,89.80
2017-11-15T05:59:58.574Z,90.00
2017-11-15T06:02:26.127Z,89.80
2017-11-15T06:04:53.793Z,89.80
2017-11-15T06:07:21.352Z,89.90
2017-11-15T06:09:48.974Z,90.10
2017-11-15T06:12:16.589Z,90.00
2017-11-15T06:14:44.854Z,90.00
2017-11-15T06:17:12.483Z,90.00
2017-11-15T06:19:40.833Z,89.70
2017-11-15T06:22:08.425Z,90.00
2017-11-15T06:24:36.045Z,89.50
2017-11-15T06:27:03.555Z,89.40
2017-11-15T06:29:31.989Z,89.50
2017-11-15T06:31:59.406Z,89.50
2017-11-15T06:34:26.989Z,89.70
2017-11-15T06:36:54.679Z,89.70
2017-11-15T06:39:22.926Z,89.70
2017-11-15T06:41:50.486Z,89.70
2017-11-15T06:44:18.034Z,89.50
2017-11-15T06:46:45.590Z,89.40
2017-11-15T06:49:13.347Z,89.40
2017-11-15T06:51:40.919Z,89.10
2017-11-15T06:54:08.492Z,89.10
2017-11-15T06:56:36.071Z,89.30
2017-11-15T06:59:03.654Z,89.40
2017-11-15T07:01:31.982Z,89.00
2017-11-15T07:03:59.578Z,89.10
2017-11-15T07:06:27.142Z,88.70
2017-11-15T07:08:54.706Z,88.90
2017-11-15T07:11:23.054Z,88.90
2017-11-15T07:13:50.608Z,88.80
2017-11-15T07:16:18.230Z,88.80
2017-11-15T07:18:48.078Z,88.80
2017-11-15T07:21:15.632Z,89.00
2017-11-15T07:23:43.181Z,89.10
2017-11-15T07:26:10.741Z,89.40
2017-11-15T07:28:38.308Z,89.20
2017-11-15T07:31:05.874Z,89.80
2017-11-15T07:33:33.432Z,89.80
2017-11-15T07:36:00.995Z,90.00
2017-11-15T07:38:28.599Z,90.00
2017-11-15T07:40:56.923Z,90.00
2017-11-15T07:43:24.496Z,89.90
2017-11-15T07:45:52.050Z,90.00
2017-11-15T07:48:19.622Z,89.90
2017-11-15T07:50:47.171Z,89.70
2017-11-15T07:53:14.729Z,89.70
2017-11-15T07:55:42.308Z,89.40
2017-11-15T07:58:09.861Z,89.20
2017-11-15T08:00:37.418Z,89.80
2017-11-15T08:03:04.974Z,90.00
2017-11-15T08:05:32.505Z,89.80
2017-11-15T08:08:00.155Z,89.70
2017-11-15T08:10:28.470Z,90.00
2017-11-15T08:12:56.034Z,90.00
2017-11-15T08:15:23.614Z,90.10
2017-11-15T08:17:51.151Z,90.20
2017-11-15T08:20:18.704Z,90.10
2017-11-15T08:22:46.261Z,90.20
2017-11-15T08:25:13.802Z,90.00
2017-11-15T08:27:41.364Z,89.80
2017-11-15T08:30:08.948Z,90.00
2017-11-15T08:32:36.515Z,89.90
2017-11-15T08:35:04.124Z,90.00
2017-11-15T08:37:32.455Z,89.90
2017-11-15T08:40:04.678Z,89.90
2017-11-15T08:42:33.022Z,89.20
2017-11-15T08:45:00.602Z,89.20
2017-11-15T08:47:31.284Z,89.30
2017-11-15T08:49:59.169Z,89.30
2017-11-15T08:52:26.729Z,89.30
2017-11-15T08:54:54.342Z,89.20
2017-11-15T08:57:22.645Z,89.40
2017-11-15T08:59:50.202Z,89.40
2017-11-15T09:02:17.916Z,89.30
2017-11-15T09:04:45.480Z,89.00
2017-11-15T09:07:13.032Z,89.20
2017-11-15T09:09:40.619Z,89.20
2017-11-15T09:12:08.935Z,88.60
2017-11-15T09:14:36.510Z,88.60
2017-11-15T09:17:04.077Z,88.40
2017-11-15T09:19:31.673Z,87.80
2017-11-15T09:22:00.024Z,86.60
2017-11-15T09:24:27.595Z,86.50
2017-11-15T09:26:55.167Z,86.80
2017-11-15T09:29:23.505Z,87.60
2017-11-15T09:31:51.054Z,87.50
2017-11-15T09:34:18.607Z,87.50
2017-11-15T09:36:46.175Z,87.60
2017-11-15T09:39:16.971Z,88.30
2017-11-15T09:41:45.394Z,88.10
2017-11-15T09:44:12.951Z,87.30
2017-11-15T09:46:40.518Z,87.30
2017-11-15T09:49:08.067Z,87.60
2017-11-15T09:51:35.635Z,87.40
2017-11-15T09:54:03.182Z,87.10
2017-11-15T09:56:30.758Z,86.60
2017-11-15T09:58:58.295Z,86.40
2017-11-15T10:04:15.653Z,85.40
2017-11-15T10:06:43.220Z,85.40
2017-11-15T10:09:10.783Z,86.50
2017-11-15T10:11:38.335Z,85.60
2017-11-15T10:14:05.936Z,84.80
2017-11-15T10:16:34.252Z,85.00
2017-11-15T10:19:14.305Z,84.90
2017-11-15T10:21:43.497Z,84.30
2017-11-15T10:24:11.059Z,83.50
2017-11-15T10:26:38.596Z,82.60
2017-11-15T10:29:06.940Z,78.80
2017-11-15T10:31:34.532Z,78.80
2017-11-15T10:34:02.892Z,79.30
2017-11-15T10:36:30.439Z,79.30
2017-11-15T10:38:58.012Z,78.30
2017-11-15T10:41:26.370Z,75.60
2017-11-15T10:46:57.488Z,76.30
2017-11-15T18:29:52.847Z,90.30
2017-11-15T18:32:20.532Z,90.20
2017-11-15T18:34:48.365Z,90.10
2017-11-15T18:37:16.466Z,90.20
2017-11-15T18:39:44.365Z,90.40
2017-11-15T18:42:12.273Z,90.40
2017-11-15T18:44:40.226Z,90.50
2017-11-15T18:47:08.167Z,90.40
2017-11-15T18:49:41.136Z,90.50
2017-11-15T18:52:09.301Z,90.50
2017-11-15T18:54:37.196Z,90.50
2017-11-15T18:57:06.162Z,90.40
2017-11-15T18:59:34.866Z,90.40
2017-11-15T19:02:03.060Z,90.80
2017-11-15T19:04:31.032Z,90.80
2017-11-15T19:06:59.161Z,90.50
2017-11-15T19:09:27.338Z,90.40
2017-11-15T19:11:55.375Z,90.60
2017-11-15T19:14:23.330Z,90.60
2017-11-15T19:16:51.186Z,90.60
2017-11-15T19:19:19.843Z,90.70
2017-11-15T19:21:47.743Z,90.70
2017-11-15T19:24:15.587Z,90.70
2017-11-15T19:26:43.480Z,90.60
2017-11-15T19:29:12.196Z,90.70
2017-11-15T19:31:40.093Z,90.70
2017-11-15T19:34:07.957Z,90.70
2017-11-15T19:36:35.849Z,90.70
2017-11-15T19:39:03.700Z,90.60
2017-11-15T19:41:31.594Z,90.70
2017-11-15T19:44:00.251Z,91.00
2017-11-15T19:46:28.092Z,91.00
2017-11-15T19:48:55.967Z,91.20
2017-11-15T19:51:23.820Z,91.30
2017-11-15T19:53:51.705Z,91.30
2017-11-15T19:56:19.621Z,91.40
2017-11-15T19:58:47.507Z,91.50
2017-11-15T20:01:15.483Z,91.40
2017-11-15T20:03:43.407Z,91.60
2017-11-15T20:06:11.236Z,91.70
2017-11-15T20:08:39.118Z,91.90
2017-11-15T20:11:07.431Z,91.90
2017-11-15T20:13:35.449Z,91.90
2017-11-15T20:16:03.364Z,92.10
2017-11-15T20:18:31.244Z,92.00
2017-11-15T20:20:59.918Z,91.90
2017-11-15T20:23:27.762Z,91.90
2017-11-15T20:25:55.593Z,91.80
2017-11-15T20:28:23.409Z,91.90
2017-11-15T20:30:51.247Z,91.80
2017-11-15T20:33:19.104Z,91.70
2017-11-15T20:35:46.754Z,91.80
2017-11-15T20:38:14.364Z,91.90
2017-11-15T20:40:41.941Z,92.00
2017-11-15T20:43:09.507Z,91.90
2017-11-15T20:45:37.067Z,91.70
2017-11-15T20:48:04.627Z,91.60
2017-11-15T20:50:32.215Z,91.40
2017-11-15T20:52:59.791Z,91.50
2017-11-15T20:55:28.144Z,91.10
2017-11-15T20:57:55.710Z,91.40
2017-11-15T21:00:23.284Z,91.40
2017-11-15T21:02:50.853Z,91.40
2017-11-15T21:05:19.159Z,91.40
2017-11-15T21:07:46.760Z,91.40
2017-11-15T21:10:14.310Z,91.20
2017-11-15T21:12:41.904Z,91.40
2017-11-15T21:15:09.464Z,91.50
2017-11-15T21:17:37.807Z,91.50
2017-11-15T21:20:05.394Z,91.40
2017-11-15T21:22:33.754Z,91.40
2017-11-15T21:25:01.344Z,91.40
2017-11-15T21:27:28.901Z,91.40
2017-11-15T21:29:56.450Z,91.40
2017-11-15T21:32:24.034Z,91.30
2017-11-15T21:34:52.357Z,91.40
2017-11-15T21:37:20.013Z,91.40
2017-11-15T21:39:47.589Z,91.50
2017-11-15T21:42:15.187Z,91.40
2017-11-15T21:44:42.754Z,91.40
2017-11-15T21:47:11.083Z,91.30
2017-11-15T21:49:38.677Z,91.30
2017-11-15T21:52:06.229Z,91.40
2017-11-15T21:54:33.788Z,91.50
2017-11-15T21:57:01.413Z,91.40
2017-11-15T21:59:28.986Z,91.50
2017-11-15T22:01:56.570Z,91.50
2017-11-15T22:04:24.149Z,91.60
2017-11-15T22:06:52.481Z,91.50
2017-11-15T22:09:20.030Z,91.80
2017-11-15T22:11:47.589Z,91.80
2017-11-15T22:14:15.147Z,92.00
2017-11-15T22:16:42.692Z,91.90
2017-11-15T22:19:10.275Z,92.00
2017-11-15T22:21:37.809Z,92.00
2017-11-15T22:24:06.149Z,92.40
2017-11-15T22:26:33.718Z,92.30
2017-11-15T22:29:01.294Z,92.20
2017-11-15T22:31:29.610Z,92.00
2017-11-15T22:33:57.204Z,92.00
2017-11-15T22:36:24.763Z,92.10
2017-11-15T22:38:52.361Z,92.30
2017-11-15T22:41:20.691Z,92.30
2017-11-15T22:43:48.272Z,92.20
2017-11-15T22:46:15.838Z,92.20
2017-11-15T22:48:43.399Z,92.20
2017-11-15T22:51:10.983Z,92.10
2017-11-15T22:53:39.315Z,92.10
2017-11-15T22:56:06.890Z,92.10
2017-11-15T22:58:34.486Z,92.20
2017-11-15T23:01:02.814Z,92.10
2017-11-15T23:03:31.136Z,92.00
2017-11-15T23:05:59.474Z,92.00
2017-11-15T23:08:27.109Z,91.90
2017-11-15T23:10:54.678Z,91.80
2017-11-15T23:13:22.242Z,91.70
2017-11-15T23:15:49.803Z,91.70
2017-11-15T23:18:17.379Z,91.70
2017-11-15T23:20:44.919Z,91.70
2017-11-15T23:23:12.505Z,91.60
2017-11-15T23:25:40.053Z,91.60
2017-11-15T23:28:07.607Z,91.60
2017-11-15T23:30:35.186Z,91.60
2017-11-15T23:33:02.812Z,91.70
2017-11-15T23:35:30.383Z,91.60
2017-11-15T23:37:57.953Z,91.80
2017-11-15T23:40:25.515Z,91.70
2017-11-15T23:42:53.126Z,91.70
2017-11-15T23:45:21.450Z,91.60
2017-11-15T23:47:49.046Z,91.60
2017-11-15T23:50:16.590Z,91.50
2017-11-15T23:52:44.174Z,91.60
2017-11-15T23:55:12.481Z,91.50
2017-11-15T23:57:40.059Z,91.50
